Time;durP1;ratioP1;P1;durP2;ratioP2;P2;SDS_P1;SDS_P2;PMS_P1;PMS_P2;Temp;Humidity;BMP_temperature;BMP_pressure;BME280_temperature;BME280_humidity;BME280_pressure;Samples;Min_cycle;Max_cycle;Signal;HPM_P1;HPM_P2
2021/08/03 00:01:24;;;;;;;2.05;1.60;;;;;;;;;;5013628;28;20203;-86
2021/08/03 00:04:00;;;;;;;1.30;1.20;;;;;;;;;;5013903;28;20215;-87
2021/08/03 00:06:28;;;;;;;1.60;1.50;;;;;;;;;;5013528;28;20230;-87
2021/08/03 00:08:58;;;;;;;2.00;1.52;;;;;;;;;;5013742;28;20187;-87
2021/08/03 00:11:27;;;;;;;1.50;1.40;;;;;;;;;;5013840;28;20187;-86
2021/08/03 00:13:56;;;;;;;2.15;1.50;;;;;;;;;;5013660;28;20187;-87
2021/08/03 00:16:25;;;;;;;1.63;1.30;;;;;;;;;;5013873;28;20215;-86
2021/08/03 00:18:54;;;;;;;1.60;1.50;;;;;;;;;;5013740;28;20556;-86
2021/08/03 00:21:21;;;;;;;1.83;1.58;;;;;;;;;;5013739;28;20191;-87
2021/08/03 00:23:49;;;;;;;1.80;1.70;;;;;;;;;;5013399;28;20210;-86
2021/08/03 00:26:17;;;;;;;6.10;1.52;;;;;;;;;;5013197;28;20234;-87
2021/08/03 00:28:49;;;;;;;1.67;1.52;;;;;;;;;;5013405;28;20199;-86
2021/08/03 00:31:20;;;;;;;2.03;1.80;;;;;;;;;;5013557;28;20191;-86
2021/08/03 00:33:50;;;;;;;1.92;1.75;;;;;;;;;;5013573;28;20183;-86
2021/08/03 00:36:19;;;;;;;1.95;1.48;;;;;;;;;;5013329;28;20223;-86
2021/08/03 00:38:46;;;;;;;2.05;1.85;;;;;;;;;;5013398;28;20711;-87
2021/08/03 00:41:19;;;;;;;2.47;1.75;;;;;;;;;;5013055;28;20536;-86
2021/08/03 00:43:46;;;;;;;2.00;1.63;;;;;;;;;;5013000;28;20210;-87
2021/08/03 00:46:14;;;;;;;4.57;2.40;;;;;;;;;;5013037;28;20285;-86
2021/08/03 00:48:43;;;;;;;1.75;1.63;;;;;;;;;;5012964;28;20189;-86
2021/08/03 00:51:11;;;;;;;5.90;2.55;;;;;;;;;;5012703;28;20218;-86
2021/08/03 00:53:38;;;;;;;2.72;1.73;;;;;;;;;;5013064;28;20194;-86
2021/08/03 00:56:06;;;;;;;1.70;1.60;;;;;;;;;;5013042;28;20238;-85
2021/08/03 00:58:34;;;;;;;1.48;1.38;;;;;;;;;;5012816;28;20195;-86
2021/08/03 01:01:01;;;;;;;1.73;1.63;;;;;;;;;;5012207;28;20206;-86
2021/08/03 01:03:29;;;;;;;2.13;1.85;;;;;;;;;;5012750;28;20325;-86
2021/08/03 01:06:05;;;;;;;2.00;1.80;;;;;;;;;;5012561;28;20230;-86
2021/08/03 01:08:41;;;;;;;2.42;2.22;;;;;;;;;;5012771;28;20191;-86
2021/08/03 01:11:15;;;;;;;2.03;1.88;;;;;;;;;;5013039;28;20191;-87
2021/08/03 01:13:51;;;;;;;2.60;2.30;;;;;;;;;;5012736;28;20198;-85
2021/08/03 01:16:26;;;;;;;2.28;1.88;;;;;;;;;;4993679;28;20315;-85
2021/08/03 01:19:12;;;;;;;2.97;1.67;;;;;;;;;;4992974;28;20668;-86
2021/08/03 01:21:51;;;;;;;2.15;2.00;;;;;;;;;;4992556;28;20203;-86
2021/08/03 01:24:56;;;;;;;1.33;1.23;;;;;;;;;;4992485;28;20682;-86
2021/08/03 01:28:13;;;;;;;2.13;1.80;;;;;;;;;;4974027;28;20242;-86
2021/08/03 01:30:46;;;;;;;2.88;2.15;;;;;;;;;;4973650;28;20193;-86
2021/08/03 01:33:16;;;;;;;1.20;1.20;;;;;;;;;;4973735;28;20189;-85
2021/08/03 01:35:44;;;;;;;1.10;1.10;;;;;;;;;;4973478;28;20252;-86
2021/08/03 01:38:13;;;;;;;1.80;1.48;;;;;;;;;;4972845;28;20215;-86
2021/08/03 01:40:43;;;;;;;2.05;1.33;;;;;;;;;;4973243;28;20193;-84
2021/08/03 01:43:12;;;;;;;1.75;1.08;;;;;;;;;;4973448;28;20208;-86
2021/08/03 01:45:40;;;;;;;1.15;1.13;;;;;;;;;;4973312;28;20232;-86
2021/08/03 01:48:10;;;;;;;1.20;1.10;;;;;;;;;;4973497;28;20560;-86
2021/08/03 01:50:38;;;;;;;1.17;1.10;;;;;;;;;;4972716;28;20201;-86
2021/08/03 01:53:06;;;;;;;1.50;1.40;;;;;;;;;;4973293;28;20184;-87
2021/08/03 01:55:34;;;;;;;1.55;1.35;;;;;;;;;;4973304;28;20612;-87
2021/08/03 01:58:02;;;;;;;1.30;1.20;;;;;;;;;;4973912;28;20193;-88
2021/08/03 02:00:32;;;;;;;1.55;1.45;;;;;;;;;;4973617;28;20181;-87
2021/08/03 02:02:59;;;;;;;1.58;1.50;;;;;;;;;;4972136;28;20192;-87
2021/08/03 02:05:34;;;;;;;0.80;0.80;;;;;;;;;;4954726;29;20261;-88
2021/08/03 02:08:01;;;;;;;1.55;1.45;;;;;;;;;;4954701;29;20208;-88
2021/08/03 02:10:29;;;;;;;1.02;1.00;;;;;;;;;;4954747;29;20197;-87
2021/08/03 02:12:58;;;;;;;0.90;0.90;;;;;;;;;;4957580;28;20560;-88
2021/08/03 02:15:25;;;;;;;1.33;1.23;;;;;;;;;;4958176;29;20229;-88
2021/08/03 02:17:54;;;;;;;1.30;1.20;;;;;;;;;;4957987;29;20185;-87
2021/08/03 02:20:23;;;;;;;1.10;1.10;;;;;;;;;;4957845;29;20192;-87
2021/08/03 02:22:52;;;;;;;0.98;0.98;;;;;;;;;;4957908;29;20209;-88
2021/08/03 02:25:19;;;;;;;1.35;1.25;;;;;;;;;;4957928;28;20608;-89
2021/08/03 02:27:48;;;;;;;1.27;1.17;;;;;;;;;;4957988;29;20185;-88
2021/08/03 02:30:16;;;;;;;1.23;1.13;;;;;;;;;;4957840;29;20190;-88
2021/08/03 02:32:47;;;;;;;1.30;1.20;;;;;;;;;;4957199;29;20212;-87
2021/08/03 02:35:20;;;;;;;1.60;1.40;;;;;;;;;;4956956;29;20201;-87
2021/08/03 02:37:53;;;;;;;1.73;1.63;;;;;;;;;;4957376;29;20185;-88
2021/08/03 02:40:21;;;;;;;1.10;1.10;;;;;;;;;;4957455;29;20190;-89
2021/08/03 02:42:49;;;;;;;2.15;1.80;;;;;;;;;;4957876;29;20182;-88
2021/08/03 02:45:19;;;;;;;1.50;1.40;;;;;;;;;;4957297;29;20228;-87
2021/08/03 02:47:52;;;;;;;2.00;1.67;;;;;;;;;;4957792;29;20193;-88
2021/08/03 02:50:25;;;;;;;1.73;1.50;;;;;;;;;;4972997;28;20220;-87
2021/08/03 02:52:57;;;;;;;2.58;2.38;;;;;;;;;;4976135;28;20636;-87
2021/08/03 02:55:27;;;;;;;1.63;1.52;;;;;;;;;;4976229;28;20224;-88
2021/08/03 02:57:59;;;;;;;1.67;1.58;;;;;;;;;;4970322;28;20203;-87
2021/08/03 03:00:33;;;;;;;3.40;1.95;;;;;;;;;;4975214;28;20701;-87
2021/08/03 03:03:03;;;;;;;2.15;1.60;;;;;;;;;;4976137;28;20563;-88
2021/08/03 03:05:37;;;;;;;2.10;1.75;;;;;;;;;;4976454;28;20661;-89
2021/08/03 03:08:09;;;;;;;1.50;1.40;;;;;;;;;;4976449;28;20211;-88
2021/08/03 03:10:40;;;;;;;1.33;1.25;;;;;;;;;;4976901;28;20188;-88
2021/08/03 03:13:14;;;;;;;1.40;1.30;;;;;;;;;;4976259;28;20208;-89
2021/08/03 03:15:42;;;;;;;2.00;1.88;;;;;;;;;;4976039;28;20243;-88
2021/08/03 03:18:11;;;;;;;1.70;1.60;;;;;;;;;;4976034;28;20201;-88
2021/08/03 03:20:42;;;;;;;1.80;1.70;;;;;;;;;;4976177;28;20567;-88
2021/08/03 03:23:11;;;;;;;1.85;1.75;;;;;;;;;;4975664;28;20184;-88
2021/08/03 03:25:40;;;;;;;1.40;1.30;;;;;;;;;;4976152;28;20228;-88
2021/08/03 03:28:09;;;;;;;1.75;1.15;;;;;;;;;;4976191;28;20196;-88
2021/08/03 03:30:38;;;;;;;1.50;1.40;;;;;;;;;;4976085;28;20181;-87
2021/08/03 03:33:08;;;;;;;1.23;1.13;;;;;;;;;;4976116;28;20208;-88
2021/08/03 03:35:36;;;;;;;0.85;0.85;;;;;;;;;;4983134;28;20216;-90
2021/08/03 03:38:09;;;;;;;0.82;0.82;;;;;;;;;;4982048;28;20295;-92
2021/08/03 03:40:37;;;;;;;1.63;1.30;;;;;;;;;;4981223;28;20204;-91
2021/08/03 03:43:05;;;;;;;1.20;1.15;;;;;;;;;;4981897;28;20238;-92
2021/08/03 03:45:33;;;;;;;1.13;1.02;;;;;;;;;;4980771;28;20244;-86
2021/08/03 03:48:05;;;;;;;1.17;1.17;;;;;;;;;;4977125;28;20181;-90
2021/08/03 03:50:43;;;;;;;1.38;1.27;;;;;;;;;;4977284;28;20177;-88
2021/08/03 03:53:18;;;;;;;1.17;1.08;;;;;;;;;;4977623;28;20188;-90
2021/08/03 03:55:52;;;;;;;1.50;1.40;;;;;;;;;;4977331;28;20228;-89
2021/08/03 03:58:21;;;;;;;2.25;1.30;;;;;;;;;;4970482;28;20204;-90
2021/08/03 04:00:54;;;;;;;4.70;4.30;;;;;;;;;;4965219;28;20203;-90
2021/08/03 04:03:24;;;;;;;3.03;2.83;;;;;;;;;;4975948;28;20597;-89
2021/08/03 04:05:54;;;;;;;2.25;2.05;;;;;;;;;;4975380;28;20236;-89
2021/08/03 04:08:25;;;;;;;2.72;1.92;;;;;;;;;;4976447;28;20188;-89
2021/08/03 04:11:02;;;;;;;1.60;1.50;;;;;;;;;;4976006;28;20185;-88
2021/08/03 04:13:39;;;;;;;1.33;1.20;;;;;;;;;;4976642;28;20188;-89
2021/08/03 04:16:10;;;;;;;1.55;1.45;;;;;;;;;;4976727;28;20228;-87
2021/08/03 04:18:38;;;;;;;1.10;1.10;;;;;;;;;;4975854;28;20188;-88
2021/08/03 04:21:07;;;;;;;1.50;1.40;;;;;;;;;;4974829;28;20285;-87
2021/08/03 04:23:37;;;;;;;0.80;0.80;;;;;;;;;;4974864;28;20195;-87
2021/08/03 04:26:04;;;;;;;1.15;1.15;;;;;;;;;;4974467;28;20243;-87
2021/08/03 04:28:32;;;;;;;1.77;1.25;;;;;;;;;;4974862;28;20663;-88
2021/08/03 04:31:01;;;;;;;2.05;1.40;;;;;;;;;;4974933;28;20192;-88
2021/08/03 04:33:30;;;;;;;1.80;1.20;;;;;;;;;;4975326;28;20677;-88
2021/08/03 04:35:57;;;;;;;0.98;0.98;;;;;;;;;;4973609;28;20216;-88
2021/08/03 04:38:25;;;;;;;0.93;0.93;;;;;;;;;;4974329;28;20211;-88
2021/08/03 04:40:55;;;;;;;0.98;0.98;;;;;;;;;;4976409;28;20193;-87
2021/08/03 04:43:23;;;;;;;1.50;1.40;;;;;;;;;;4973245;28;20189;-87
2021/08/03 04:45:51;;;;;;;1.40;1.35;;;;;;;;;;4973480;28;20239;-87
2021/08/03 04:48:18;;;;;;;1.92;1.73;;;;;;;;;;4974311;28;20202;-86
2021/08/03 04:50:46;;;;;;;1.52;1.30;;;;;;;;;;4974087;28;20204;-87
2021/08/03 04:53:13;;;;;;;1.40;1.30;;;;;;;;;;4974177;28;20194;-88
2021/08/03 04:55:40;;;;;;;0.95;0.95;;;;;;;;;;4973891;28;20234;-88
2021/08/03 04:58:09;;;;;;;1.35;1.25;;;;;;;;;;4973340;28;20207;-85
2021/08/03 05:00:37;;;;;;;1.50;1.40;;;;;;;;;;4974033;28;20215;-88
2021/08/03 05:03:04;;;;;;;1.10;1.10;;;;;;;;;;4973795;28;20655;-87
2021/08/03 05:05:32;;;;;;;1.63;1.52;;;;;;;;;;4974193;28;20232;-88
2021/08/03 05:08:01;;;;;;;1.27;1.13;;;;;;;;;;4973875;28;20185;-88
2021/08/03 05:10:31;;;;;;;5.25;2.00;;;;;;;;;;4974497;28;20363;-90
2021/08/03 05:13:02;;;;;;;1.60;1.50;;;;;;;;;;4974347;28;20181;-90
2021/08/03 05:15:31;;;;;;;1.50;1.40;;;;;;;;;;4975012;28;20220;-87
2021/08/03 05:17:59;;;;;;;1.33;1.23;;;;;;;;;;4976543;28;20184;-87
2021/08/03 05:20:26;;;;;;;1.80;1.70;;;;;;;;;;4975927;28;20189;-87
2021/08/03 05:22:53;;;;;;;1.73;1.60;;;;;;;;;;4976400;28;20195;-87
2021/08/03 05:25:21;;;;;;;1.65;1.55;;;;;;;;;;4976839;28;20209;-86
2021/08/03 05:27:48;;;;;;;1.63;1.52;;;;;;;;;;4976642;28;20215;-87
2021/08/03 05:30:16;;;;;;;1.60;1.50;;;;;;;;;;4976126;28;20188;-87
2021/08/03 05:32:45;;;;;;;1.73;1.63;;;;;;;;;;4975649;28;20204;-87
2021/08/03 05:35:12;;;;;;;2.03;1.80;;;;;;;;;;4975917;28;20189;-87
2021/08/03 05:37:41;;;;;;;2.15;2.05;;;;;;;;;;4974642;28;20193;-87
2021/08/03 05:40:12;;;;;;;2.42;2.15;;;;;;;;;;4973453;28;20664;-87
2021/08/03 05:42:40;;;;;;;2.90;2.70;;;;;;;;;;4972974;28;20288;-86
2021/08/03 05:45:09;;;;;;;2.50;2.30;;;;;;;;;;4972845;28;20224;-87
2021/08/03 05:47:37;;;;;;;1.67;1.58;;;;;;;;;;4975723;28;20643;-86
2021/08/03 05:50:07;;;;;;;1.83;1.73;;;;;;;;;;4977268;28;20189;-86
2021/08/03 05:52:35;;;;;;;1.42;1.33;;;;;;;;;;4977232;28;20201;-87
2021/08/03 05:55:04;;;;;;;2.25;2.00;;;;;;;;;;4977093;28;20212;-88
2021/08/03 05:57:32;;;;;;;2.03;1.92;;;;;;;;;;4977195;28;20189;-86
2021/08/03 05:59:59;;;;;;;2.17;1.98;;;;;;;;;;4977428;28;20296;-87
2021/08/03 06:02:26;;;;;;;1.80;1.70;;;;;;;;;;4977438;28;20204;-87
2021/08/03 06:04:55;;;;;;;2.08;1.88;;;;;;;;;;4977238;28;20217;-87
2021/08/03 06:07:26;;;;;;;2.78;2.15;;;;;;;;;;4976740;28;20279;-87
2021/08/03 06:09:57;;;;;;;2.67;2.17;;;;;;;;;;4976937;28;20643;-86
2021/08/03 06:12:26;;;;;;;2.60;1.95;;;;;;;;;;4977050;28;20243;-88
2021/08/03 06:14:56;;;;;;;1.75;1.65;;;;;;;;;;4977051;28;20196;-88
2021/08/03 06:17:36;;;;;;;2.22;2.03;;;;;;;;;;4976444;28;20225;-87
2021/08/03 06:20:06;;;;;;;2.05;1.92;;;;;;;;;;4976859;28;20193;-87
2021/08/03 06:22:38;;;;;;;2.50;1.83;;;;;;;;;;4976661;28;20615;-87
2021/08/03 06:25:07;;;;;;;2.85;2.28;;;;;;;;;;4976604;28;20200;-87
2021/08/03 06:27:35;;;;;;;2.17;1.98;;;;;;;;;;4976543;28;20208;-87
2021/08/03 06:30:03;;;;;;;2.22;2.03;;;;;;;;;;4976308;28;20534;-86
2021/08/03 06:32:32;;;;;;;2.40;2.20;;;;;;;;;;4976433;28;20200;-87
2021/08/03 06:35:00;;;;;;;2.20;2.08;;;;;;;;;;4976523;28;20189;-87
2021/08/03 06:37:27;;;;;;;2.05;1.95;;;;;;;;;;4976681;28;20193;-86
2021/08/03 06:39:57;;;;;;;2.67;2.30;;;;;;;;;;4976508;28;20180;-87
2021/08/03 06:42:41;;;;;;;2.33;2.20;;;;;;;;;;4976401;28;20184;-87
2021/08/03 06:45:12;;;;;;;2.97;2.22;;;;;;;;;;4976808;28;20192;-86
2021/08/03 06:47:54;;;;;;;3.45;2.67;;;;;;;;;;4976155;28;20200;-87
2021/08/03 06:50:25;;;;;;;2.80;2.60;;;;;;;;;;4975957;28;20605;-86
2021/08/03 06:52:53;;;;;;;2.85;2.65;;;;;;;;;;4976381;28;20199;-85
2021/08/03 06:55:28;;;;;;;3.58;3.28;;;;;;;;;;4976080;28;20183;-86
2021/08/03 06:57:58;;;;;;;2.95;2.65;;;;;;;;;;4975235;28;20698;-86
2021/08/03 07:00:29;;;;;;;4.47;3.38;;;;;;;;;;4976226;28;20191;-87
2021/08/03 07:02:57;;;;;;;2.60;2.40;;;;;;;;;;4974894;28;20207;-86
2021/08/03 07:05:28;;;;;;;2.83;2.53;;;;;;;;;;4995390;28;20227;-86
2021/08/03 07:07:58;;;;;;;3.25;3.00;;;;;;;;;;4995230;28;20218;-86
2021/08/03 07:10:28;;;;;;;3.28;2.97;;;;;;;;;;4995218;28;20184;-89
2021/08/03 07:13:02;;;;;;;3.15;2.85;;;;;;;;;;4985353;28;20197;-89
2021/08/03 07:15:30;;;;;;;3.03;2.72;;;;;;;;;;4994155;28;20227;-89
2021/08/03 07:17:58;;;;;;;5.18;3.17;;;;;;;;;;4995501;28;20184;-86
2021/08/03 07:20:26;;;;;;;4.43;3.42;;;;;;;;;;4996017;28;20194;-88
2021/08/03 07:22:54;;;;;;;3.15;2.85;;;;;;;;;;4985620;28;20209;-89
2021/08/03 07:25:21;;;;;;;3.35;3.05;;;;;;;;;;4974150;28;20216;-88
2021/08/03 07:27:50;;;;;;;2.55;2.35;;;;;;;;;;4956607;29;20642;-88
2021/08/03 07:30:18;;;;;;;2.60;2.40;;;;;;;;;;4955631;29;20209;-89
2021/08/03 07:32:55;;;;;;;2.50;2.28;;;;;;;;;;4964982;28;20200;-86
2021/08/03 07:35:29;;;;;;;2.47;2.28;;;;;;;;;;4975204;28;20310;-90
2021/08/03 07:38:01;;;;;;;2.10;1.90;;;;;;;;;;4976271;28;20235;-88
2021/08/03 07:40:31;;;;;;;2.95;2.75;;;;;;;;;;4976879;28;20188;-87
2021/08/03 07:43:01;;;;;;;3.38;2.60;;;;;;;;;;4975582;28;20231;-88
2021/08/03 07:45:29;;;;;;;2.72;2.15;;;;;;;;;;4975953;28;20247;-87
2021/08/03 07:47:58;;;;;;;2.90;2.60;;;;;;;;;;4974934;28;20220;-86
2021/08/03 07:50:26;;;;;;;2.47;2.20;;;;;;;;;;4973929;28;20203;-86
2021/08/03 07:52:54;;;;;;;2.55;2.35;;;;;;;;;;4974294;28;20201;-85
2021/08/03 07:55:21;;;;;;;2.20;2.10;;;;;;;;;;4974149;28;20192;-85
2021/08/03 07:57:49;;;;;;;3.00;2.70;;;;;;;;;;4974804;28;20181;-85
2021/08/03 08:00:18;;;;;;;2.60;2.40;;;;;;;;;;4974077;28;20831;-85
2021/08/03 08:02:53;;;;;;;2.15;1.95;;;;;;;;;;4974440;28;20196;-86
2021/08/03 08:05:21;;;;;;;2.17;1.95;;;;;;;;;;4974226;28;20223;-84
2021/08/03 08:07:48;;;;;;;2.55;2.35;;;;;;;;;;4974522;28;20605;-87
2021/08/03 08:10:16;;;;;;;2.53;2.33;;;;;;;;;;4974147;28;20228;-85
2021/08/03 08:12:43;;;;;;;3.20;2.58;;;;;;;;;;4974164;28;20200;-85
2021/08/03 08:15:14;;;;;;;2.42;2.20;;;;;;;;;;4974125;28;20678;-84
2021/08/03 08:17:43;;;;;;;2.50;2.30;;;;;;;;;;4974502;28;20189;-86
2021/08/03 08:20:13;;;;;;;2.15;1.95;;;;;;;;;;4974314;28;20188;-86
2021/08/03 08:22:42;;;;;;;2.00;1.90;;;;;;;;;;4974379;28;20208;-86
2021/08/03 08:25:11;;;;;;;1.90;1.80;;;;;;;;;;4973896;28;20545;-86
2021/08/03 08:27:40;;;;;;;3.60;3.20;;;;;;;;;;4973893;28;20311;-86
2021/08/03 08:30:11;;;;;;;2.78;2.55;;;;;;;;;;4973987;28;20553;-88
2021/08/03 08:32:40;;;;;;;2.72;2.53;;;;;;;;;;4966992;28;20595;-86
2021/08/03 08:35:10;;;;;;;2.90;2.53;;;;;;;;;;4954726;29;20244;-86
2021/08/03 08:37:39;;;;;;;7.90;2.38;;;;;;;;;;4954835;29;20193;-86
2021/08/03 08:40:09;;;;;;;2.20;2.00;;;;;;;;;;4954520;29;20644;-87
2021/08/03 08:42:38;;;;;;;3.10;2.28;;;;;;;;;;4962314;28;20196;-88
2021/08/03 08:45:09;;;;;;;1.98;1.70;;;;;;;;;;4974141;28;20188;-88
2021/08/03 08:47:43;;;;;;;1.27;1.17;;;;;;;;;;4974078;28;20212;-87
2021/08/03 08:50:13;;;;;;;2.42;2.22;;;;;;;;;;4973905;28;20184;-87
2021/08/03 08:52:44;;;;;;;2.83;2.45;;;;;;;;;;4966038;28;20941;-86
2021/08/03 08:55:13;;;;;;;3.30;2.72;;;;;;;;;;4954629;29;20713;-86
2021/08/03 08:57:41;;;;;;;3.42;3.13;;;;;;;;;;4954713;29;20198;-86
2021/08/03 09:00:11;;;;;;;2.60;2.28;;;;;;;;;;4954538;29;20212;-85
2021/08/03 09:02:41;;;;;;;1.73;1.63;;;;;;;;;;4962168;28;20276;-87
2021/08/03 09:05:16;;;;;;;2.13;2.03;;;;;;;;;;4973938;28;20624;-90
2021/08/03 09:07:52;;;;;;;2.25;1.98;;;;;;;;;;4974156;28;20212;-88
2021/08/03 09:10:33;;;;;;;4.45;1.85;;;;;;;;;;4973347;28;20187;-86
2021/08/03 09:13:05;;;;;;;2.15;1.98;;;;;;;;;;4973431;28;20648;-86
2021/08/03 09:15:35;;;;;;;3.17;2.40;;;;;;;;;;4973789;28;20234;-85
2021/08/03 09:18:25;;;;;;;1.90;1.80;;;;;;;;;;4973544;28;20192;-86
2021/08/03 09:20:54;;;;;;;2.22;2.03;;;;;;;;;;4973989;28;20679;-87
2021/08/03 09:23:21;;;;;;;2.58;2.35;;;;;;;;;;4979658;28;20643;-88
2021/08/03 09:25:58;;;;;;;3.05;2.42;;;;;;;;;;4990053;28;20257;-87
2021/08/03 09:28:26;;;;;;;2.67;2.47;;;;;;;;;;5018547;28;20635;-87
2021/08/03 09:30:54;;;;;;;3.00;2.80;;;;;;;;;;5019041;28;20191;-86
2021/08/03 09:33:25;;;;;;;2.45;2.25;;;;;;;;;;5005246;28;20202;-86
2021/08/03 09:35:56;;;;;;;2.15;1.98;;;;;;;;;;4999546;28;20223;-85
2021/08/03 09:38:26;;;;;;;2.70;2.50;;;;;;;;;;4999144;28;20187;-89
2021/08/03 09:41:08;;;;;;;2.72;2.53;;;;;;;;;;5000175;28;20196;-89
2021/08/03 09:43:39;;;;;;;2.30;2.20;;;;;;;;;;5000049;28;20416;-89
2021/08/03 09:46:07;;;;;;;2.53;2.33;;;;;;;;;;4999611;28;20231;-89
2021/08/03 09:48:34;;;;;;;2.70;2.45;;;;;;;;;;4999466;28;20712;-88
2021/08/03 09:51:08;;;;;;;2.10;2.00;;;;;;;;;;4999463;28;20192;-89
2021/08/03 09:53:50;;;;;;;1.98;1.85;;;;;;;;;;5000293;28;20203;-89
2021/08/03 09:56:35;;;;;;;2.33;2.13;;;;;;;;;;5001621;28;20234;-89
2021/08/03 09:59:06;;;;;;;2.40;2.20;;;;;;;;;;5002038;28;20211;-90
2021/08/03 10:01:41;;;;;;;3.28;2.90;;;;;;;;;;5001940;28;20571;-90
2021/08/03 10:04:12;;;;;;;3.33;2.88;;;;;;;;;;4999952;28;20195;-90
2021/08/03 10:06:51;;;;;;;3.55;3.25;;;;;;;;;;4999877;28;20238;-91
2021/08/03 10:09:21;;;;;;;3.00;2.78;;;;;;;;;;5001214;28;20215;-91
2021/08/03 10:11:50;;;;;;;2.67;2.47;;;;;;;;;;5000258;28;20551;-90
2021/08/03 10:14:17;;;;;;;3.60;3.30;;;;;;;;;;4979740;28;20228;-89
2021/08/03 10:16:45;;;;;;;3.10;2.90;;;;;;;;;;4979747;28;20227;-87
2021/08/03 10:19:20;;;;;;;3.13;2.90;;;;;;;;;;4979638;28;20192;-88
2021/08/03 10:22:01;;;;;;;2.72;2.53;;;;;;;;;;4980899;28;20661;-88
2021/08/03 10:24:35;;;;;;;1.92;1.83;;;;;;;;;;5020177;28;20221;-89
2021/08/03 10:27:09;;;;;;;1.92;1.70;;;;;;;;;;5019279;28;20244;-90
2021/08/03 10:29:49;;;;;;;2.50;1.88;;;;;;;;;;5018931;28;20709;-89
2021/08/03 10:32:39;;;;;;;2.00;1.90;;;;;;;;;;5013425;28;20211;-90
2021/08/03 10:35:13;;;;;;;2.75;2.55;;;;;;;;;;4997929;28;20181;-90
2021/08/03 10:38:12;;;;;;;2.95;2.63;;;;;;;;;;4998633;28;20261;-90
2021/08/03 10:41:07;;;;;;;2.58;2.38;;;;;;;;;;4997553;28;20192;-89
2021/08/03 10:43:51;;;;;;;2.22;2.13;;;;;;;;;;5011483;28;20192;-89
2021/08/03 10:46:42;;;;;;;2.03;1.92;;;;;;;;;;5019459;28;20253;-89
2021/08/03 10:49:13;;;;;;;1.90;1.80;;;;;;;;;;5018882;28;20250;-89
2021/08/03 10:51:44;;;;;;;3.58;2.90;;;;;;;;;;5016030;28;20195;-86
2021/08/03 10:54:22;;;;;;;2.50;2.30;;;;;;;;;;4975760;28;20181;-87
2021/08/03 10:57:23;;;;;;;3.10;2.90;;;;;;;;;;4975908;28;20232;-88
2021/08/03 11:00:04;;;;;;;2.70;2.50;;;;;;;;;;4975910;28;20223;-87
2021/08/03 11:02:46;;;;;;;2.20;1.77;;;;;;;;;;4988238;28;20187;-86
2021/08/03 11:05:33;;;;;;;2.45;2.33;;;;;;;;;;5014268;28;20213;-85
2021/08/03 11:08:31;;;;;;;2.70;2.50;;;;;;;;;;5014650;28;20183;-85
2021/08/03 11:11:06;;;;;;;1.65;1.55;;;;;;;;;;4915292;29;20214;-88
2021/08/03 11:13:39;;;;;;;1.55;1.45;;;;;;;;;;4981293;28;20203;-86
2021/08/03 11:16:13;;;;;;;1.70;1.60;;;;;;;;;;4995070;28;20227;-85
2021/08/03 11:18:44;;;;;;;1.90;1.80;;;;;;;;;;4994609;28;20199;-87
2021/08/03 11:21:14;;;;;;;1.60;1.50;;;;;;;;;;4994604;28;20199;-85
2021/08/03 11:24:14;;;;;;;2.28;1.83;;;;;;;;;;4978762;28;20213;-87
2021/08/03 11:26:51;;;;;;;1.52;1.42;;;;;;;;;;4962841;28;20244;-87
2021/08/03 11:29:21;;;;;;;1.67;1.58;;;;;;;;;;4956014;29;20208;-88
2021/08/03 11:31:52;;;;;;;2.03;1.92;;;;;;;;;;4956807;28;20197;-87
2021/08/03 11:34:27;;;;;;;2.05;1.85;;;;;;;;;;4975475;28;20191;-87
2021/08/03 11:37:17;;;;;;;2.05;1.80;;;;;;;;;;4975271;28;20219;-87
2021/08/03 11:39:50;;;;;;;2.20;2.10;;;;;;;;;;4974758;28;20211;-88
2021/08/03 11:42:34;;;;;;;1.95;1.85;;;;;;;;;;4975109;28;20690;-87
2021/08/03 11:45:14;;;;;;;1.35;1.25;;;;;;;;;;4974615;28;20631;-88
2021/08/03 11:48:01;;;;;;;1.38;1.30;;;;;;;;;;4975170;28;20192;-87
2021/08/03 11:50:34;;;;;;;2.00;1.90;;;;;;;;;;4975513;28;20212;-88
2021/08/03 11:53:06;;;;;;;1.77;1.67;;;;;;;;;;4976059;28;20184;-86
2021/08/03 11:55:34;;;;;;;1.45;1.35;;;;;;;;;;4974883;28;20227;-86
2021/08/03 11:58:03;;;;;;;2.03;1.88;;;;;;;;;;4974983;28;20192;-87
2021/08/03 12:00:30;;;;;;;3.75;2.47;;;;;;;;;;4974215;28;20640;-86
2021/08/03 12:03:01;;;;;;;1.73;1.63;;;;;;;;;;4974846;28;20205;-88
2021/08/03 12:05:31;;;;;;;2.25;1.75;;;;;;;;;;4974748;28;20226;-87
2021/08/03 12:08:06;;;;;;;1.60;1.50;;;;;;;;;;4975154;28;20291;-89
2021/08/03 12:10:37;;;;;;;1.83;1.73;;;;;;;;;;4975072;28;20238;-88
2021/08/03 12:13:10;;;;;;;2.05;1.95;;;;;;;;;;4974661;28;20194;-91
2021/08/03 12:15:51;;;;;;;3.22;2.28;;;;;;;;;;4982034;28;20234;-90
2021/08/03 12:18:19;;;;;;;2.70;2.30;;;;;;;;;;4974940;28;20218;-87
2021/08/03 12:20:55;;;;;;;3.30;2.30;;;;;;;;;;4974517;28;20203;-88
2021/08/03 12:23:26;;;;;;;3.20;2.92;;;;;;;;;;4974178;28;20655;-86
2021/08/03 12:26:01;;;;;;;2.25;2.15;;;;;;;;;;4980078;28;21008;-88
2021/08/03 12:28:44;;;;;;;1.95;1.85;;;;;;;;;;4993889;28;20867;-90
2021/08/03 12:31:33;;;;;;;2.35;2.25;;;;;;;;;;4993839;28;20627;-86
2021/08/03 12:34:13;;;;;;;2.55;2.35;;;;;;;;;;4975134;28;20651;-88
2021/08/03 12:36:46;;;;;;;2.15;2.05;;;;;;;;;;4974201;28;20220;-86
2021/08/03 12:39:20;;;;;;;2.08;1.98;;;;;;;;;;4974038;28;20192;-89
2021/08/03 12:42:09;;;;;;;1.50;1.40;;;;;;;;;;4974709;28;20279;-87
2021/08/03 12:44:41;;;;;;;1.70;1.60;;;;;;;;;;4975353;28;20647;-88
2021/08/03 12:47:13;;;;;;;1.52;1.42;;;;;;;;;;4975631;28;20292;-87
2021/08/03 12:49:46;;;;;;;2.17;2.08;;;;;;;;;;4974603;28;20220;-87
2021/08/03 12:52:28;;;;;;;1.98;1.88;;;;;;;;;;4973721;28;20195;-87
2021/08/03 12:54:59;;;;;;;1.90;1.80;;;;;;;;;;4973390;28;20196;-85
2021/08/03 12:57:45;;;;;;;1.98;1.88;;;;;;;;;;4972766;28;20232;-87
2021/08/03 13:00:35;;;;;;;1.67;1.58;;;;;;;;;;4973660;28;20189;-86
2021/08/03 13:03:05;;;;;;;1.95;1.85;;;;;;;;;;4973894;28;20200;-87
2021/08/03 13:05:33;;;;;;;2.03;1.92;;;;;;;;;;4973752;28;20231;-86
2021/08/03 13:08:01;;;;;;;2.08;1.98;;;;;;;;;;4973702;28;20189;-86
2021/08/03 13:10:30;;;;;;;2.00;1.88;;;;;;;;;;4973864;28;20222;-86
2021/08/03 13:12:57;;;;;;;3.78;2.28;;;;;;;;;;4963710;28;20235;-85
2021/08/03 13:15:25;;;;;;;1.50;1.40;;;;;;;;;;4954115;29;20706;-86
2021/08/03 13:17:55;;;;;;;1.38;1.30;;;;;;;;;;4954280;29;20189;-86
2021/08/03 13:20:24;;;;;;;1.45;1.40;;;;;;;;;;4954050;29;20287;-86
2021/08/03 13:22:52;;;;;;;1.65;1.40;;;;;;;;;;4963306;28;20200;-85
2021/08/03 13:25:20;;;;;;;1.50;1.40;;;;;;;;;;4973167;28;20180;-86
2021/08/03 13:27:48;;;;;;;1.70;1.60;;;;;;;;;;4956834;28;20219;-86
2021/08/03 13:30:15;;;;;;;1.90;1.80;;;;;;;;;;4954150;29;20209;-86
2021/08/03 13:32:43;;;;;;;2.10;2.00;;;;;;;;;;4961897;28;20201;-85
2021/08/03 13:35:12;;;;;;;1.70;1.60;;;;;;;;;;4973130;28;20651;-85
2021/08/03 13:37:39;;;;;;;1.92;1.83;;;;;;;;;;4973185;28;20212;-86
2021/08/03 13:40:09;;;;;;;2.60;1.67;;;;;;;;;;4973117;28;20205;-86
2021/08/03 13:42:37;;;;;;;1.85;1.75;;;;;;;;;;4972962;28;20196;-86
2021/08/03 13:45:06;;;;;;;2.42;2.33;;;;;;;;;;4971224;28;20205;-86
2021/08/03 13:47:33;;;;;;;2.20;2.10;;;;;;;;;;4973375;28;20188;-86
2021/08/03 13:50:02;;;;;;;2.90;2.70;;;;;;;;;;4973336;28;20566;-87
2021/08/03 13:52:31;;;;;;;2.28;2.00;;;;;;;;;;4973035;28;20578;-86
2021/08/03 13:54:58;;;;;;;3.33;3.08;;;;;;;;;;4973335;28;20192;-88
2021/08/03 13:57:26;;;;;;;3.30;3.10;;;;;;;;;;4973389;28;20220;-87
2021/08/03 13:59:53;;;;;;;3.03;2.72;;;;;;;;;;4973436;28;20259;-87
2021/08/03 14:02:21;;;;;;;3.67;2.60;;;;;;;;;;4973049;28;20204;-87
2021/08/03 14:04:49;;;;;;;2.70;2.50;;;;;;;;;;4973375;28;20192;-87
2021/08/03 14:07:16;;;;;;;3.40;3.10;;;;;;;;;;4974093;28;20231;-86
2021/08/03 14:09:45;;;;;;;2.33;2.13;;;;;;;;;;4977165;28;20193;-89
2021/08/03 14:12:13;;;;;;;2.30;2.15;;;;;;;;;;4976923;28;20291;-87
2021/08/03 14:14:40;;;;;;;2.58;2.38;;;;;;;;;;4977303;28;20196;-87
2021/08/03 14:17:07;;;;;;;2.70;2.50;;;;;;;;;;4977116;28;20231;-87
2021/08/03 14:19:35;;;;;;;1.92;1.70;;;;;;;;;;4981634;28;20199;-88
2021/08/03 14:22:04;;;;;;;2.05;1.95;;;;;;;;;;4971963;28;20197;-88
2021/08/03 14:24:33;;;;;;;2.20;2.10;;;;;;;;;;4976651;28;20207;-88
2021/08/03 14:27:02;;;;;;;1.30;1.20;;;;;;;;;;4984562;28;20236;-88
2021/08/03 14:29:33;;;;;;;1.33;1.30;;;;;;;;;;4979877;28;20184;-88
2021/08/03 14:32:01;;;;;;;1.65;1.55;;;;;;;;;;4993519;28;20594;-87
2021/08/03 14:34:29;;;;;;;1.13;1.13;;;;;;;;;;4976409;28;20212;-87
2021/08/03 14:36:57;;;;;;;1.13;1.13;;;;;;;;;;4976230;28;20702;-86
2021/08/03 14:39:24;;;;;;;1.80;1.70;;;;;;;;;;4976097;28;20695;-87
2021/08/03 14:41:53;;;;;;;1.30;1.20;;;;;;;;;;4976398;28;20224;-87
2021/08/03 14:44:22;;;;;;;1.60;1.50;;;;;;;;;;4976533;28;20203;-89
2021/08/03 14:46:50;;;;;;;1.70;1.60;;;;;;;;;;4966048;28;20229;-87
2021/08/03 14:49:19;;;;;;;1.55;1.45;;;;;;;;;;4957266;29;20185;-88
2021/08/03 14:51:53;;;;;;;1.80;1.70;;;;;;;;;;4971534;28;20224;-88
2021/08/03 14:54:21;;;;;;;1.38;1.38;;;;;;;;;;4976357;28;20192;-88
2021/08/03 14:56:50;;;;;;;1.30;1.30;;;;;;;;;;4976786;28;20232;-90
2021/08/03 14:59:21;;;;;;;1.50;1.40;;;;;;;;;;4976251;28;20195;-87
2021/08/03 15:01:48;;;;;;;1.92;1.58;;;;;;;;;;4976137;28;20271;-87
2021/08/03 15:04:18;;;;;;;1.55;1.45;;;;;;;;;;4982197;28;20198;-88
2021/08/03 15:10:32;;;;;;;1.48;1.38;;;;;;;;;;4976493;28;20625;-89
2021/08/03 15:13:00;;;;;;;1.42;1.33;;;;;;;;;;4976460;28;20185;-87